createdAt,value
2018-08-03T00:01:40.524Z,26.60
2018-08-03T00:11:59.700Z,26.60
2018-08-03T00:17:09.997Z,26.50
2018-08-03T00:24:55.276Z,26.50
2018-08-03T00:32:40.386Z,26.50
2018-08-03T00:37:50.290Z,26.50
2018-08-03T00:40:25.276Z,26.50
2018-08-03T00:53:19.782Z,26.40
2018-08-03T00:58:29.726Z,26.40
2018-08-03T01:06:14.336Z,26.40
2018-08-03T01:13:58.901Z,26.30
2018-08-03T01:19:14.049Z,26.40
2018-08-03T01:21:49.215Z,26.30
2018-08-03T01:26:59.103Z,26.30
2018-08-03T01:34:43.620Z,26.30
2018-08-03T01:37:18.627Z,26.30
2018-08-03T01:42:28.535Z,26.20
2018-08-03T01:47:38.447Z,26.10
2018-08-03T02:03:07.484Z,26.10
2018-08-03T02:08:17.444Z,26.10
2018-08-03T02:10:52.575Z,26.10
2018-08-03T02:13:27.743Z,26.10
2018-08-03T02:16:02.873Z,26.10
2018-08-03T02:21:12.968Z,26.10
2018-08-03T02:26:22.803Z,26.10
2018-08-03T02:31:32.867Z,26.00
2018-08-03T02:41:52.319Z,26.00
2018-08-03T02:47:02.062Z,26.00
2018-08-03T02:52:12.247Z,26.00
2018-08-03T02:57:22.016Z,25.90
2018-08-03T02:59:57.051Z,25.90
2018-08-03T03:05:06.912Z,25.90
2018-08-03T03:12:51.584Z,25.90
2018-08-03T03:23:11.390Z,25.80
2018-08-03T03:30:56.595Z,25.80
2018-08-03T03:36:06.527Z,25.80
2018-08-03T03:41:16.530Z,25.80
2018-08-03T03:54:11.282Z,25.70
2018-08-03T03:59:21.694Z,25.70
2018-08-03T04:01:57.724Z,25.70
2018-08-03T04:07:07.932Z,25.70
2018-08-03T04:12:18.127Z,25.70
2018-08-03T04:17:28.164Z,25.70
2018-08-03T04:20:03.493Z,25.60
2018-08-03T04:22:38.529Z,25.70
2018-08-03T04:30:23.138Z,25.60
2018-08-03T04:43:17.583Z,25.60
2018-08-03T04:45:52.770Z,25.60
2018-08-03T04:48:27.865Z,25.60
2018-08-03T04:51:02.947Z,25.60
2018-08-03T04:56:12.668Z,25.60
2018-08-03T05:03:57.408Z,25.60
2018-08-03T05:14:17.395Z,25.60
2018-08-03T05:22:01.993Z,25.60
2018-08-03T05:29:46.758Z,25.50
2018-08-03T05:32:21.865Z,25.50
2018-08-03T05:34:56.851Z,25.50
2018-08-03T05:40:06.904Z,25.50
2018-08-03T05:45:16.651Z,25.50
2018-08-03T05:53:01.373Z,25.60
2018-08-03T06:00:45.832Z,25.60
2018-08-03T06:08:30.668Z,25.70
2018-08-03T06:18:50.735Z,25.90
2018-08-03T06:26:35.268Z,26.00
2018-08-03T06:29:10.299Z,26.10
2018-08-03T06:31:45.443Z,26.20
2018-08-03T06:34:20.559Z,26.20
2018-08-03T06:36:55.687Z,26.30
2018-08-03T06:39:30.807Z,26.30
2018-08-03T06:47:15.253Z,26.50
2018-08-03T06:49:50.742Z,26.60
2018-08-03T06:57:35.422Z,26.70
2018-08-03T07:02:46.459Z,26.90
2018-08-03T07:05:21.435Z,26.90
2018-08-03T07:07:56.433Z,27.00
2018-08-03T07:10:31.618Z,27.00
2018-08-03T07:18:16.381Z,27.20
2018-08-03T07:23:26.342Z,27.20
2018-08-03T07:26:01.514Z,27.30
2018-08-03T07:28:37.188Z,27.30
2018-08-03T07:33:46.987Z,27.50
2018-08-03T07:36:22.013Z,27.50
2018-08-03T07:38:57.112Z,27.50
2018-08-03T07:51:57.721Z,27.70
2018-08-03T07:59:42.270Z,27.80
2018-08-03T08:04:52.333Z,27.90
2018-08-03T08:12:36.842Z,28.00
2018-08-03T08:17:47.108Z,28.10
2018-08-03T08:25:31.800Z,28.20
2018-08-03T08:30:41.722Z,28.20
2018-08-03T08:33:16.857Z,28.30
2018-08-03T08:41:01.372Z,28.40
2018-08-03T08:43:36.594Z,28.40
2018-08-03T08:51:21.152Z,28.40
2018-08-03T08:59:05.795Z,28.50
2018-08-03T09:12:00.283Z,28.60
2018-08-03T09:17:10.674Z,28.70
2018-08-03T09:22:20.489Z,28.70
2018-08-03T09:24:55.611Z,28.70
2018-08-03T09:27:30.724Z,28.70
2018-08-03T09:30:07.706Z,28.80
2018-08-03T09:35:17.387Z,28.80
2018-08-03T09:37:52.409Z,28.80
2018-08-03T09:43:02.538Z,28.80
2018-08-03T09:50:47.038Z,28.90
2018-08-03T09:53:22.165Z,28.80
2018-08-03T09:55:57.188Z,28.90
2018-08-03T09:58:32.336Z,28.90
2018-08-03T10:08:55.236Z,28.90
2018-08-03T10:16:39.772Z,29.00
2018-08-03T10:24:24.525Z,29.00
2018-08-03T10:29:34.693Z,29.00
2018-08-03T10:34:44.962Z,29.00
2018-08-03T10:42:30.761Z,29.00
2018-08-03T10:45:05.916Z,29.00
2018-08-03T10:55:26.107Z,29.00
2018-08-03T11:00:36.048Z,29.00
2018-08-03T11:05:45.955Z,29.00
2018-08-03T11:13:30.532Z,29.00
2018-08-03T11:18:41.064Z,29.00
2018-08-03T11:23:50.802Z,28.90
2018-08-03T11:34:10.352Z,28.90
2018-08-03T11:36:45.486Z,28.90
2018-08-03T11:39:20.652Z,28.90
2018-08-03T11:44:30.438Z,28.80
2018-08-03T11:49:40.370Z,28.80
2018-08-03T12:07:44.084Z,28.80
2018-08-03T12:10:19.222Z,28.80
2018-08-03T12:12:54.320Z,28.80
2018-08-03T12:18:04.187Z,28.80
2018-08-03T12:30:59.053Z,28.80
2018-08-03T12:36:09.371Z,28.80
2018-08-03T12:41:19.628Z,28.80
2018-08-03T12:46:29.508Z,28.80
2018-08-03T12:49:04.689Z,28.80
2018-08-03T12:51:39.970Z,28.80
2018-08-03T12:56:49.675Z,28.80
2018-08-03T12:59:25.199Z,28.80
2018-08-03T13:02:00.151Z,28.80
2018-08-03T13:04:35.269Z,28.80
2018-08-03T13:07:10.448Z,28.80
2018-08-03T13:09:45.865Z,28.80
2018-08-03T13:12:20.976Z,28.80
2018-08-03T13:14:56.017Z,28.80
2018-08-03T13:30:25.606Z,28.80
2018-08-03T13:38:10.188Z,28.90
2018-08-03T13:48:29.787Z,28.80
2018-08-03T13:51:04.946Z,28.90
2018-08-03T13:56:15.834Z,28.90
2018-08-03T14:01:36.817Z,28.90
2018-08-03T14:04:11.946Z,28.90
2018-08-03T14:09:22.064Z,28.90
2018-08-03T14:11:57.188Z,29.00
2018-08-03T14:14:32.309Z,29.00
2018-08-03T14:17:07.697Z,28.90
2018-08-03T14:19:43.105Z,29.00
2018-08-03T14:24:53.792Z,29.00
2018-08-03T14:27:28.948Z,29.00
2018-08-03T14:32:39.412Z,29.00
2018-08-03T14:40:24.129Z,29.00
2018-08-03T14:45:34.181Z,29.00
2018-08-03T14:53:18.803Z,29.00
2018-08-03T15:03:38.287Z,29.00
2018-08-03T15:06:13.427Z,29.10
2018-08-03T15:08:48.568Z,29.00
2018-08-03T15:11:23.587Z,29.10
2018-08-03T15:16:33.771Z,29.10
2018-08-03T15:21:43.731Z,29.10
2018-08-03T15:26:53.607Z,29.10
2018-08-03T15:34:38.237Z,29.10
2018-08-03T15:44:57.553Z,29.10
2018-08-03T15:50:07.413Z,29.10
2018-08-03T15:55:17.690Z,29.10
2018-08-03T16:00:27.612Z,29.10
2018-08-03T16:03:02.754Z,29.10
2018-08-03T16:05:37.932Z,29.10
2018-08-03T16:08:13.088Z,29.10
2018-08-03T16:13:24.572Z,29.10
2018-08-03T16:21:09.121Z,29.10
2018-08-03T16:28:53.734Z,29.10
2018-08-03T16:34:03.714Z,29.10
2018-08-03T16:36:38.722Z,29.10
2018-08-03T16:39:13.818Z,29.10
2018-08-03T16:41:48.836Z,29.10
2018-08-03T16:54:42.951Z,29.10
2018-08-03T17:07:37.172Z,29.00
2018-08-03T17:17:56.670Z,29.10
2018-08-03T17:20:31.825Z,29.00
2018-08-03T17:23:06.933Z,29.00
2018-08-03T17:25:42.061Z,29.00
2018-08-03T17:28:17.392Z,29.00
2018-08-03T17:30:52.363Z,29.10
2018-08-03T17:33:27.525Z,29.00
2018-08-03T17:36:02.625Z,29.00
2018-08-03T17:38:37.797Z,29.00
2018-08-03T17:41:12.961Z,29.00
2018-08-03T17:48:57.549Z,29.00
2018-08-03T18:07:01.154Z,28.90
2018-08-03T18:12:11.009Z,28.90
2018-08-03T18:27:40.615Z,28.90
2018-08-03T18:32:50.625Z,28.90
2018-08-03T18:38:00.573Z,28.90
2018-08-03T18:43:10.800Z,28.90
2018-08-03T18:50:55.334Z,28.90
2018-08-03T18:56:05.615Z,28.80
2018-08-03T19:03:50.152Z,28.80
2018-08-03T19:09:00.054Z,28.70
2018-08-03T19:11:35.160Z,28.80
2018-08-03T19:16:45.114Z,28.70
2018-08-03T19:24:29.769Z,28.70
2018-08-03T19:34:49.222Z,28.70
2018-08-03T19:42:33.854Z,28.60
2018-08-03T19:50:18.425Z,28.60
2018-08-03T19:55:28.422Z,28.60
2018-08-03T20:05:47.748Z,28.50
2018-08-03T20:10:57.700Z,28.50
2018-08-03T20:16:07.584Z,28.50
2018-08-03T20:18:42.708Z,28.50
2018-08-03T20:23:52.982Z,28.50
2018-08-03T20:26:28.161Z,28.50
2018-08-03T20:29:03.280Z,28.50
2018-08-03T20:31:38.410Z,28.50
2018-08-03T20:34:13.549Z,28.40
2018-08-03T20:47:07.580Z,28.40
2018-08-03T20:54:52.743Z,28.30
2018-08-03T21:00:02.525Z,28.30
2018-08-03T21:10:22.564Z,28.30
2018-08-03T21:12:57.692Z,28.30
2018-08-03T21:18:07.439Z,28.30
2018-08-03T21:25:52.164Z,28.20
2018-08-03T21:31:02.481Z,28.20
2018-08-03T21:36:12.297Z,28.20
2018-08-03T21:46:32.769Z,28.10
2018-08-03T21:49:07.897Z,28.10
2018-08-03T21:51:43.031Z,28.10
2018-08-03T21:56:52.832Z,28.00
2018-08-03T21:59:28.489Z,28.10
2018-08-03T22:02:03.623Z,28.00
2018-08-03T22:09:48.740Z,28.00
2018-08-03T22:12:23.859Z,28.00
2018-08-03T22:14:58.884Z,28.00
2018-08-03T22:17:33.999Z,28.00
2018-08-03T22:20:09.069Z,28.00
2018-08-03T22:22:44.194Z,27.90
2018-08-03T22:25:19.184Z,27.90
2018-08-03T22:27:54.311Z,27.90
2018-08-03T22:35:38.703Z,27.90
2018-08-03T22:38:13.928Z,27.90
2018-08-03T22:40:49.044Z,27.90
2018-08-03T22:43:24.225Z,27.80
2018-08-03T22:45:59.343Z,27.80
2018-08-03T22:48:34.391Z,27.80
2018-08-03T22:53:44.272Z,27.80
2018-08-03T22:58:54.359Z,27.70
2018-08-03T23:06:38.947Z,27.70
2018-08-03T23:11:48.869Z,27.70
2018-08-03T23:14:24.079Z,27.70
2018-08-03T23:16:59.206Z,27.70
2018-08-03T23:27:18.645Z,27.60
2018-08-03T23:32:28.429Z,27.60
2018-08-03T23:40:13.202Z,27.60
2018-08-03T23:45:23.085Z,27.60
2018-08-03T23:55:42.552Z,27.50
2018-08-03T23:58:17.616Z,27.50
